FVCP weather

Charles Prince Airport
Harare, Harare Metropolitan Province, Zimbabwe

Public forecast

Using degrees Celsius for public forecast. Weather courtesy of forecast.io.

Closest aviation weather report (METAR) to Charles Prince Airport

Report is more than 2 hours old.

Closest report is Robert Gabriel Mugabe International Airport, 14.5 nm (26.8 km) SE. Retrieved 2019/12/10 07:00 UTC (4 hours ago):

FVRG 100700Z 02012KT 9999 SCT006 OVC080 18/15 Q1020 NOSIG

Closest aviation forecast (TAF) to Charles Prince Airport

Forecast is more than 6 hours old.

Closest forecast is Robert Gabriel Mugabe International Airport, 14.5 nm (26.8 km) SE. Retrieved 2019-12-10 00:00 UTC (11 hours ago):

TAF FVRG 092300Z 1000/1106 05007KT 9999 FEW030CB BKN080 PROB30 TEMPO 1000/1005 8000 -TSRA BECMG 1008/1010 FEW030CB BKN035 PROB30 TEMPO 1012/1018 5000 TSRA SCT008 BKN080 FEW025CB BECMG 1020/1022 8000 -TSRA TEMPO 1102/1106 9999 -RA